createdAt,value
2018-06-19T00:00:50.174Z,0
2018-06-19T00:01:51.837Z,0
2018-06-19T00:02:53.490Z,0
2018-06-19T00:03:55.140Z,0
2018-06-19T00:04:56.794Z,0
2018-06-19T00:05:58.450Z,0
2018-06-19T00:07:00.104Z,0
2018-06-19T00:08:01.787Z,0
2018-06-19T00:09:03.439Z,0
2018-06-19T00:10:05.094Z,0
2018-06-19T00:11:06.750Z,0
2018-06-19T00:12:08.402Z,0
2018-06-19T00:13:10.054Z,0
2018-06-19T00:14:11.708Z,0
2018-06-19T00:15:13.356Z,0
2018-06-19T00:16:15.012Z,0
2018-06-19T00:17:16.671Z,0
2018-06-19T00:18:18.326Z,0
2018-06-19T00:19:19.978Z,0
2018-06-19T00:20:21.643Z,0
2018-06-19T00:21:23.334Z,0
2018-06-19T00:22:25.005Z,0
2018-06-19T00:23:26.656Z,0
2018-06-19T00:24:28.308Z,0
2018-06-19T00:25:29.970Z,0
2018-06-19T00:26:31.620Z,0
2018-06-19T00:27:33.276Z,0
2018-06-19T00:28:34.937Z,0
2018-06-19T00:29:36.603Z,0
2018-06-19T00:30:38.251Z,0
2018-06-19T00:31:39.904Z,0
2018-06-19T00:32:41.566Z,0
2018-06-19T00:33:43.227Z,0
2018-06-19T00:34:44.882Z,0
2018-06-19T00:35:46.548Z,0
2018-06-19T00:36:48.205Z,0
2018-06-19T00:37:49.857Z,0
2018-06-19T00:38:51.516Z,0
2018-06-19T00:39:53.179Z,0
2018-06-19T00:40:54.832Z,0
2018-06-19T00:41:56.487Z,0
2018-06-19T00:42:58.153Z,0
2018-06-19T00:43:59.808Z,0
2018-06-19T00:45:01.497Z,0
2018-06-19T00:46:03.157Z,0
2018-06-19T00:47:04.835Z,0
2018-06-19T00:48:06.508Z,0
2018-06-19T00:49:08.172Z,0
2018-06-19T00:50:09.819Z,0
2018-06-19T00:51:11.479Z,0
2018-06-19T00:52:13.138Z,0
2018-06-19T00:53:14.799Z,0
2018-06-19T00:54:16.463Z,0
2018-06-19T00:55:18.121Z,0
2018-06-19T00:56:19.766Z,0
2018-06-19T00:57:21.427Z,0
2018-06-19T00:58:23.119Z,0
2018-06-19T00:59:24.770Z,0
2018-06-19T01:00:26.431Z,0
2018-06-19T01:01:28.092Z,0
2018-06-19T01:02:29.747Z,0
2018-06-19T01:03:31.402Z,0
2018-06-19T01:04:33.054Z,0
2018-06-19T01:05:34.715Z,0
2018-06-19T01:06:36.371Z,0
2018-06-19T01:07:38.039Z,0
2018-06-19T01:08:39.726Z,0
2018-06-19T01:09:41.382Z,0
2018-06-19T01:10:43.031Z,0
2018-06-19T01:11:44.720Z,0
2018-06-19T01:12:46.366Z,0
2018-06-19T01:13:48.030Z,0
2018-06-19T01:14:49.687Z,0
2018-06-19T01:15:51.351Z,0
2018-06-19T01:16:53.006Z,0
2018-06-19T01:17:54.662Z,0
2018-06-19T01:18:56.315Z,0
2018-06-19T01:19:58.076Z,0
2018-06-19T01:20:59.730Z,0
2018-06-19T01:22:01.415Z,0
2018-06-19T01:23:03.087Z,0
2018-06-19T01:24:04.741Z,0
2018-06-19T01:25:06.395Z,0
2018-06-19T01:26:08.049Z,0
2018-06-19T01:27:09.708Z,0
2018-06-19T01:28:11.364Z,0
2018-06-19T01:29:13.030Z,0
2018-06-19T01:30:14.683Z,0
2018-06-19T01:31:16.355Z,0
2018-06-19T01:32:18.006Z,0
2018-06-19T01:33:19.668Z,0
2018-06-19T01:34:21.321Z,0
2018-06-19T01:35:22.979Z,0
2018-06-19T01:36:24.639Z,0
2018-06-19T01:37:26.294Z,0
2018-06-19T01:38:27.960Z,0
2018-06-19T01:39:29.617Z,0
2018-06-19T01:40:31.285Z,0
2018-06-19T01:41:32.933Z,0
2018-06-19T01:42:34.592Z,0
2018-06-19T01:43:36.258Z,0
2018-06-19T01:44:37.930Z,0
2018-06-19T01:45:39.576Z,0
2018-06-19T01:46:41.224Z,0
2018-06-19T01:47:42.882Z,0
2018-06-19T01:48:44.542Z,0
2018-06-19T01:49:46.205Z,0
2018-06-19T01:50:47.868Z,0
2018-06-19T01:51:49.531Z,0
2018-06-19T01:52:51.194Z,0
2018-06-19T01:53:52.846Z,0
2018-06-19T01:54:54.494Z,0
2018-06-19T02:01:08.050Z,0
2018-06-19T02:02:09.696Z,0
2018-06-19T02:04:01.635Z,0
2018-06-19T02:05:03.286Z,0
2018-06-19T02:06:55.157Z,0
2018-06-19T02:07:56.811Z,0
2018-06-19T02:09:48.751Z,0
2018-06-19T02:10:50.413Z,0
2018-06-19T02:12:42.307Z,0
2018-06-19T02:13:43.975Z,0
2018-06-19T02:15:35.952Z,0
2018-06-19T02:16:37.605Z,0
2018-06-19T02:18:29.574Z,0
2018-06-19T02:19:31.234Z,0
2018-06-19T02:20:32.889Z,0
2018-06-19T02:21:34.543Z,0
2018-06-19T02:22:36.186Z,0
2018-06-19T02:23:37.836Z,4
2018-06-19T02:24:39.500Z,4
2018-06-19T02:25:41.157Z,4
2018-06-19T02:26:42.811Z,0
2018-06-19T02:27:44.477Z,4
2018-06-19T02:28:46.185Z,4
2018-06-19T02:29:47.834Z,4
2018-06-19T02:30:49.487Z,4
2018-06-19T02:31:51.142Z,8
2018-06-19T02:32:52.793Z,8
2018-06-19T02:33:54.449Z,8
2018-06-19T02:34:56.108Z,8
2018-06-19T02:35:57.761Z,8
2018-06-19T02:36:59.418Z,12
2018-06-19T02:38:01.104Z,12
2018-06-19T02:39:02.750Z,16
2018-06-19T02:40:04.397Z,16
2018-06-19T02:41:06.108Z,20
2018-06-19T02:42:07.706Z,24
2018-06-19T02:43:09.360Z,24
2018-06-19T02:44:11.018Z,28
2018-06-19T02:45:12.675Z,32
2018-06-19T02:46:14.328Z,32
2018-06-19T02:47:15.983Z,36
2018-06-19T02:48:17.633Z,44
2018-06-19T02:49:19.300Z,48
2018-06-19T02:50:20.945Z,56
2018-06-19T02:51:22.598Z,64
2018-06-19T02:52:24.262Z,76
2018-06-19T02:53:25.922Z,84
2018-06-19T02:54:27.573Z,96
2018-06-19T02:55:29.235Z,104
2018-06-19T02:56:30.892Z,120
2018-06-19T02:57:32.546Z,132
2018-06-19T02:58:34.216Z,148
2018-06-19T02:59:35.865Z,168
2018-06-19T03:00:37.526Z,184
2018-06-19T03:01:39.194Z,200
2018-06-19T03:02:40.862Z,220
2018-06-19T03:03:42.506Z,244
2018-06-19T03:04:44.192Z,268
2018-06-19T03:05:45.845Z,292
2018-06-19T03:06:47.498Z,316
2018-06-19T03:07:49.162Z,340
2018-06-19T03:08:50.840Z,372
2018-06-19T03:09:52.500Z,400
2018-06-19T03:10:54.160Z,428
2018-06-19T03:11:55.824Z,464
2018-06-19T03:12:57.469Z,496
2018-06-19T03:13:59.126Z,528
2018-06-19T03:15:00.786Z,564
2018-06-19T03:16:02.441Z,600
2018-06-19T03:17:04.102Z,640
2018-06-19T03:18:05.767Z,684
2018-06-19T03:19:07.434Z,724
2018-06-19T03:20:09.092Z,772
2018-06-19T03:21:10.756Z,816
2018-06-19T03:22:12.421Z,864
2018-06-19T03:23:14.090Z,908
2018-06-19T03:24:15.750Z,956
2018-06-19T03:25:17.420Z,1004
2018-06-19T03:26:19.098Z,1056
2018-06-19T03:27:20.764Z,1108
2018-06-19T03:28:22.421Z,1160
2018-06-19T03:29:24.089Z,1212
2018-06-19T03:30:25.799Z,1268
2018-06-19T03:31:27.401Z,1328
2018-06-19T03:32:29.048Z,1384
2018-06-19T03:33:30.708Z,1444
2018-06-19T03:34:32.366Z,1508
2018-06-19T03:35:34.048Z,1568
2018-06-19T03:36:35.704Z,1628
2018-06-19T03:37:37.371Z,1688
2018-06-19T03:38:39.108Z,1752
2018-06-19T03:39:40.774Z,1808
2018-06-19T03:40:42.438Z,1848
2018-06-19T03:41:44.120Z,1892
2018-06-19T03:42:45.852Z,2024
2018-06-19T03:43:47.452Z,2260
2018-06-19T03:44:49.115Z,2452
2018-06-19T03:45:50.771Z,2508
2018-06-19T03:46:52.434Z,2552
2018-06-19T03:47:54.102Z,2688
2018-06-19T03:48:55.817Z,2864
2018-06-19T03:49:57.479Z,2780
2018-06-19T03:50:59.134Z,2868
2018-06-19T03:52:00.795Z,3108
2018-06-19T03:53:02.460Z,3048
2018-06-19T03:54:04.131Z,2988
2018-06-19T03:55:05.799Z,2832
2018-06-19T03:56:07.458Z,2700
2018-06-19T03:57:09.114Z,2804
2018-06-19T03:58:10.777Z,2984
2018-06-19T03:59:12.435Z,2688
2018-06-19T04:00:14.104Z,2504
2018-06-19T04:01:15.778Z,2672
2018-06-19T04:02:17.424Z,2724
2018-06-19T04:03:19.099Z,2832
2018-06-19T04:04:20.768Z,3080
2018-06-19T04:05:22.433Z,3064
2018-06-19T04:06:24.095Z,3160
2018-06-19T04:07:25.758Z,3196
2018-06-19T04:08:27.430Z,3216
2018-06-19T04:09:29.092Z,3416
2018-06-19T04:10:30.827Z,3712
2018-06-19T04:11:32.441Z,3896
2018-06-19T04:12:34.096Z,3716
2018-06-19T04:13:35.756Z,3704
2018-06-19T04:14:37.422Z,3904
2018-06-19T04:15:39.086Z,4076
2018-06-19T04:16:40.772Z,4276
2018-06-19T04:17:42.439Z,4372
2018-06-19T04:18:44.100Z,4240
2018-06-19T04:19:45.773Z,4392
2018-06-19T04:20:47.436Z,4708
2018-06-19T04:21:49.147Z,4720
2018-06-19T04:22:50.761Z,5000
2018-06-19T04:23:52.425Z,5336
2018-06-19T04:24:54.141Z,5440
2018-06-19T04:25:55.804Z,5612
2018-06-19T04:26:57.478Z,5692
2018-06-19T04:27:59.151Z,5692
2018-06-19T04:29:00.811Z,5700
2018-06-19T04:30:02.505Z,5876
2018-06-19T04:31:04.180Z,6028
2018-06-19T04:32:05.846Z,6236
2018-06-19T04:33:07.505Z,6340
2018-06-19T04:34:09.179Z,6352
2018-06-19T04:35:10.841Z,6668
2018-06-19T04:36:12.505Z,6720
2018-06-19T04:37:14.172Z,6652
2018-06-19T04:38:15.828Z,6552
2018-06-19T04:39:17.498Z,6332
2018-06-19T04:40:19.167Z,6192
2018-06-19T04:41:20.837Z,6364
2018-06-19T04:42:22.503Z,6432
2018-06-19T04:43:24.162Z,6184
2018-06-19T04:44:25.822Z,6260
2018-06-19T04:45:27.479Z,6140
2018-06-19T04:46:29.165Z,5956
2018-06-19T04:47:30.808Z,6176
2018-06-19T04:48:32.470Z,6596
2018-06-19T04:49:34.130Z,7092
2018-06-19T04:50:35.799Z,7244
2018-06-19T04:51:37.475Z,7208
2018-06-19T04:52:39.132Z,7348
2018-06-19T04:53:40.797Z,7596
2018-06-19T04:54:42.460Z,7804
2018-06-19T04:55:44.127Z,7788
2018-06-19T04:56:45.812Z,7764
2018-06-19T04:57:47.503Z,7648
2018-06-19T04:58:49.165Z,7592
2018-06-19T04:59:50.848Z,7604
2018-06-19T05:00:52.502Z,7504
2018-06-19T05:01:54.181Z,7748
2018-06-19T05:02:55.845Z,7964
2018-06-19T05:03:57.509Z,8096
2018-06-19T05:04:59.179Z,8048
2018-06-19T05:06:00.833Z,7724
2018-06-19T05:07:02.498Z,7656
2018-06-19T05:08:04.165Z,7892
2018-06-19T05:09:05.867Z,8048
2018-06-19T05:10:07.518Z,8356
2018-06-19T05:11:09.189Z,8748
2018-06-19T05:12:10.848Z,8488
2018-06-19T05:13:12.512Z,8400
2018-06-19T05:14:14.185Z,8424
2018-06-19T05:15:15.869Z,8468
2018-06-19T05:16:17.536Z,8528
2018-06-19T05:17:19.212Z,8820
2018-06-19T05:18:20.889Z,8852
2018-06-19T05:19:22.552Z,8636
2018-06-19T05:20:24.213Z,8440
2018-06-19T05:21:25.884Z,8364
2018-06-19T05:22:27.546Z,8648
2018-06-19T05:23:29.218Z,8956
2018-06-19T05:24:30.887Z,8904
2018-06-19T05:25:32.554Z,9044
2018-06-19T05:26:34.216Z,9244
2018-06-19T05:27:35.882Z,9256
2018-06-19T05:28:37.549Z,9408
2018-06-19T05:29:39.219Z,9620
2018-06-19T05:30:40.875Z,9740
2018-06-19T05:31:42.543Z,9820
2018-06-19T05:32:44.276Z,9688
2018-06-19T05:33:45.942Z,9516
2018-06-19T05:34:47.605Z,9504
2018-06-19T05:35:49.287Z,9512
2018-06-19T05:36:50.957Z,9480
2018-06-19T05:37:52.618Z,9380
2018-06-19T05:38:54.287Z,9372
2018-06-19T05:39:55.951Z,9516
2018-06-19T05:40:57.610Z,9516
2018-06-19T05:41:59.266Z,9504
2018-06-19T05:43:00.974Z,9464
2018-06-19T05:44:02.642Z,9084
2018-06-19T05:45:04.300Z,8820
2018-06-19T05:46:05.966Z,8816
2018-06-19T05:47:07.639Z,8912
2018-06-19T05:48:09.304Z,9144
2018-06-19T05:49:10.962Z,9088
2018-06-19T05:50:12.621Z,9284
2018-06-19T05:51:14.281Z,9712
2018-06-19T05:52:15.946Z,9876
2018-06-19T05:53:17.606Z,9892
2018-06-19T05:54:19.269Z,10032
2018-06-19T05:55:20.929Z,10124
2018-06-19T06:01:57.170Z,11040
2018-06-19T06:02:58.827Z,11368
2018-06-19T06:04:50.725Z,11624
2018-06-19T06:05:52.448Z,12076
2018-06-19T06:07:44.347Z,13348
2018-06-19T06:08:46.012Z,13684
2018-06-19T06:10:37.985Z,15136
2018-06-19T06:11:39.637Z,15496
2018-06-19T06:13:31.566Z,15064
2018-06-19T06:14:33.225Z,14104
2018-06-19T06:16:25.155Z,12808
2018-06-19T06:17:26.782Z,12552
2018-06-19T06:19:18.690Z,13728
2018-06-19T06:20:20.380Z,13628
2018-06-19T06:22:12.372Z,11912
2018-06-19T06:23:13.934Z,10476
2018-06-19T06:25:05.832Z,10536
2018-06-19T06:26:07.502Z,11144
2018-06-19T06:27:59.429Z,9980
2018-06-19T06:29:01.095Z,10360
2018-06-19T06:30:52.967Z,13456
2018-06-19T06:31:54.629Z,13396
2018-06-19T06:33:46.557Z,15184
2018-06-19T06:34:48.214Z,14432
2018-06-19T06:36:40.127Z,14592
2018-06-19T06:37:41.781Z,13796
2018-06-19T06:39:33.703Z,15284
2018-06-19T06:40:35.363Z,14916
2018-06-19T06:42:27.281Z,14552
2018-06-19T06:43:28.949Z,14900
2018-06-19T06:45:20.841Z,13384
2018-06-19T06:46:22.516Z,12252
2018-06-19T06:48:14.505Z,11108
2018-06-19T06:49:16.177Z,12688
2018-06-19T06:51:08.082Z,13340
2018-06-19T06:52:09.751Z,12744
2018-06-19T06:54:01.719Z,11684
2018-06-19T06:55:03.379Z,12744
2018-06-19T06:56:55.316Z,13340
2018-06-19T06:57:56.978Z,13568
2018-06-19T06:58:58.643Z,14720
2018-06-19T07:00:00.308Z,15320
2018-06-19T07:01:02.018Z,14876
2018-06-19T07:02:03.687Z,17100
2018-06-19T07:03:05.358Z,18720
2018-06-19T07:04:07.039Z,15860
2018-06-19T07:05:08.703Z,13820
2018-06-19T07:06:10.365Z,12972
2018-06-19T07:07:12.029Z,13204
2018-06-19T07:08:13.703Z,13776
2018-06-19T07:09:15.373Z,12188
2018-06-19T07:10:17.148Z,10632
2018-06-19T07:11:18.689Z,10128
2018-06-19T07:12:20.349Z,12240
2018-06-19T07:13:22.064Z,12932
2018-06-19T07:14:23.679Z,12468
2018-06-19T07:15:25.354Z,12400
2018-06-19T07:16:27.026Z,12704
2018-06-19T07:17:28.683Z,13368
2018-06-19T07:18:30.352Z,15012
2018-06-19T07:19:32.081Z,15704
2018-06-19T07:20:33.643Z,15272
2018-06-19T07:21:35.301Z,14408
2018-06-19T07:22:36.971Z,13624
2018-06-19T07:23:38.637Z,13156
2018-06-19T07:24:40.300Z,13212
2018-06-19T07:25:41.966Z,13652
2018-06-19T07:26:43.634Z,13712
2018-06-19T07:27:45.309Z,12972
2018-06-19T07:28:46.979Z,11512
2018-06-19T07:29:48.634Z,11364
2018-06-19T07:30:50.321Z,12840
2018-06-19T07:31:51.977Z,14272
2018-06-19T07:32:53.640Z,13604
2018-06-19T07:33:55.296Z,12356
2018-06-19T07:34:56.960Z,12028
2018-06-19T07:35:58.634Z,11784
2018-06-19T07:37:00.305Z,11076
2018-06-19T07:38:02.079Z,9976
2018-06-19T07:39:03.615Z,9748
2018-06-19T07:40:05.270Z,9632
2018-06-19T07:41:06.939Z,9400
2018-06-19T07:42:08.602Z,8592
2018-06-19T07:43:10.262Z,8864
2018-06-19T07:44:11.940Z,8756
2018-06-19T07:45:13.611Z,8060
2018-06-19T07:46:15.264Z,8624
2018-06-19T07:47:16.935Z,9720
2018-06-19T07:48:18.592Z,9900
2018-06-19T07:49:20.259Z,12144
2018-06-19T07:50:21.916Z,12932
2018-06-19T07:51:23.577Z,12976
2018-06-19T07:52:25.243Z,11776
2018-06-19T07:53:26.912Z,10156
2018-06-19T07:54:28.606Z,9608
2018-06-19T07:55:30.290Z,9208
2018-06-19T07:56:31.941Z,8680
2018-06-19T07:57:33.599Z,8972
2018-06-19T07:58:35.265Z,9256
2018-06-19T07:59:36.930Z,9392
2018-06-19T08:00:38.594Z,11012
2018-06-19T08:01:40.269Z,11040
2018-06-19T08:02:41.931Z,13816
2018-06-19T08:03:43.591Z,20128
2018-06-19T08:04:45.256Z,23296
2018-06-19T08:05:46.928Z,21824
2018-06-19T08:06:48.596Z,19520
2018-06-19T08:07:50.269Z,19968
2018-06-19T08:08:51.931Z,21920
2018-06-19T08:09:53.596Z,21568
2018-06-19T08:10:55.263Z,21568
2018-06-19T08:11:56.923Z,20992
2018-06-19T08:12:58.584Z,19552
2018-06-19T08:14:00.774Z,19840
2018-06-19T08:15:02.435Z,19104
2018-06-19T08:16:04.105Z,17068
2018-06-19T08:17:05.770Z,16640
2018-06-19T08:18:07.427Z,17304
2018-06-19T08:19:09.095Z,17804
2018-06-19T08:20:10.756Z,16876
2018-06-19T08:21:12.416Z,16224
2018-06-19T08:22:14.084Z,18368
2018-06-19T08:23:15.745Z,17012
2018-06-19T08:24:17.406Z,17620
2018-06-19T08:25:19.071Z,16188
2018-06-19T08:26:20.734Z,16932
2018-06-19T08:27:22.403Z,17256
2018-06-19T08:28:24.083Z,16500
2018-06-19T08:29:25.756Z,16660
2018-06-19T08:30:27.420Z,17076
2018-06-19T08:31:29.088Z,17416
2018-06-19T08:32:30.751Z,18208
2018-06-19T08:33:32.427Z,18176
2018-06-19T08:34:34.094Z,17160
2018-06-19T08:35:35.761Z,19008
2018-06-19T08:36:37.423Z,22400
2018-06-19T08:37:39.085Z,20992
2018-06-19T08:38:40.755Z,19008
2018-06-19T08:39:42.427Z,18944
2018-06-19T08:40:44.095Z,20064
2018-06-19T08:41:45.809Z,20992
2018-06-19T08:42:47.445Z,20736
2018-06-19T08:43:49.118Z,21280
2018-06-19T08:44:50.779Z,22112
2018-06-19T08:45:52.435Z,20448
2018-06-19T08:46:54.098Z,18656
2018-06-19T08:47:55.782Z,18560
2018-06-19T08:48:57.436Z,18880
2018-06-19T08:49:59.095Z,19840
2018-06-19T08:51:00.759Z,21184
2018-06-19T08:52:02.426Z,21920
2018-06-19T08:53:04.085Z,22560
2018-06-19T08:54:05.760Z,23328
2018-06-19T08:55:07.426Z,22688
2018-06-19T08:56:09.089Z,22816
2018-06-19T08:57:10.753Z,21760
2018-06-19T08:58:12.427Z,19840
2018-06-19T08:59:14.092Z,20352
2018-06-19T09:00:15.791Z,21600
2018-06-19T09:01:17.449Z,23264
2018-06-19T09:02:19.141Z,22304
2018-06-19T09:03:20.802Z,20608
2018-06-19T09:04:22.462Z,20000
2018-06-19T09:05:24.131Z,21376
2018-06-19T09:06:25.791Z,22400
2018-06-19T09:07:27.457Z,21696
2018-06-19T09:08:29.120Z,21184
2018-06-19T09:09:30.790Z,21536
2018-06-19T09:10:32.461Z,23264
2018-06-19T09:11:34.127Z,22976
2018-06-19T09:12:35.788Z,21696
2018-06-19T09:13:37.464Z,21632
2018-06-19T09:14:39.130Z,21536
2018-06-19T09:15:40.798Z,21088
2018-06-19T09:16:42.466Z,21600
2018-06-19T09:17:44.122Z,21568
2018-06-19T09:18:45.790Z,21952
2018-06-19T09:19:47.457Z,22848
2018-06-19T09:20:49.128Z,23744
2018-06-19T09:21:50.788Z,23904
2018-06-19T09:22:52.457Z,24288
2018-06-19T09:23:54.119Z,24352
2018-06-19T09:24:55.775Z,23168
2018-06-19T09:25:57.473Z,22304
2018-06-19T09:26:59.096Z,22208
2018-06-19T09:28:00.761Z,22144
2018-06-19T09:29:02.426Z,22816
2018-06-19T09:30:04.124Z,24672
2018-06-19T09:31:05.797Z,26816
2018-06-19T09:32:07.461Z,28032
2018-06-19T09:33:09.115Z,28192
2018-06-19T09:34:10.780Z,28864
2018-06-19T09:35:14.108Z,29632
2018-06-19T09:36:15.772Z,30368
2018-06-19T09:37:17.439Z,31168
2018-06-19T09:38:19.096Z,32288
2018-06-19T09:39:20.771Z,31872
2018-06-19T09:40:22.445Z,30272
2018-06-19T09:41:24.105Z,29024
2018-06-19T09:42:25.772Z,29728
2018-06-19T09:43:27.472Z,30912
2018-06-19T09:44:29.135Z,30240
2018-06-19T09:45:30.792Z,30240
2018-06-19T09:46:32.466Z,30656
2018-06-19T09:47:34.131Z,31296
2018-06-19T09:48:35.798Z,30432
2018-06-19T09:49:37.472Z,27904
2018-06-19T09:50:39.137Z,25792
2018-06-19T09:51:40.806Z,25408
2018-06-19T09:52:42.479Z,25088
2018-06-19T09:53:44.169Z,25120
2018-06-19T09:54:45.820Z,23744
2018-06-19T10:01:32.921Z,22240
2018-06-19T10:02:34.584Z,21024
2018-06-19T10:04:26.513Z,16256
2018-06-19T10:05:28.172Z,14656
2018-06-19T10:07:20.046Z,13080
2018-06-19T10:08:21.705Z,13012
2018-06-19T10:10:13.636Z,13632
2018-06-19T10:11:15.306Z,13560
2018-06-19T10:13:07.191Z,12356
2018-06-19T10:14:08.862Z,12580
2018-06-19T10:16:00.772Z,13408
2018-06-19T10:17:02.451Z,14060
2018-06-19T10:18:54.325Z,16580
2018-06-19T10:19:55.980Z,17068
2018-06-19T10:21:47.937Z,18528
2018-06-19T10:22:49.606Z,18624
2018-06-19T10:23:51.260Z,19104
2018-06-19T10:24:52.913Z,21152
2018-06-19T10:25:54.583Z,24064
2018-06-19T10:26:56.246Z,26816
2018-06-19T10:27:57.916Z,28544
2018-06-19T10:28:59.584Z,29632
2018-06-19T10:30:01.272Z,28832
2018-06-19T10:31:06.811Z,27808
2018-06-19T10:32:08.477Z,26912
2018-06-19T10:33:10.151Z,30496
2018-06-19T10:34:11.813Z,33248
2018-06-19T10:35:13.494Z,32288
2018-06-19T10:36:15.160Z,30912
2018-06-19T10:37:16.839Z,30944
2018-06-19T10:38:18.536Z,29536
2018-06-19T10:39:20.222Z,29696
2018-06-19T10:40:21.880Z,28192
2018-06-19T10:41:23.545Z,26368
2018-06-19T10:42:25.215Z,27904
2018-06-19T10:43:26.920Z,29600
2018-06-19T10:44:28.647Z,30688
2018-06-19T10:45:30.325Z,33856
2018-06-19T10:46:31.997Z,34624
2018-06-19T10:47:33.662Z,29152
2018-06-19T10:48:35.316Z,23936
2018-06-19T10:49:36.984Z,20192
2018-06-19T10:50:38.649Z,18176
2018-06-19T10:51:40.317Z,18464
2018-06-19T10:52:42.038Z,19520
2018-06-19T10:53:43.659Z,22464
2018-06-19T10:54:45.324Z,25344
2018-06-19T10:55:46.985Z,27008
2018-06-19T10:56:48.654Z,28576
2018-06-19T10:57:50.318Z,31808
2018-06-19T10:58:52.040Z,35584
2018-06-19T10:59:53.645Z,37440
2018-06-19T11:00:55.333Z,33216
2018-06-19T11:01:56.995Z,28128
2018-06-19T11:02:58.662Z,31840
2018-06-19T11:04:00.334Z,35712
2018-06-19T11:05:02.076Z,34304
2018-06-19T11:06:03.723Z,35712
2018-06-19T11:07:05.399Z,35424
2018-06-19T11:08:07.037Z,29696
2018-06-19T11:09:08.643Z,29568
2018-06-19T11:10:10.326Z,42624
2018-06-19T11:11:12.009Z,114784
2018-06-19T11:12:13.676Z,49568
2018-06-19T11:13:15.396Z,46656
2018-06-19T11:14:17.078Z,54208
2018-06-19T11:15:18.744Z,72896
2018-06-19T11:16:20.411Z,81568
2018-06-19T11:17:22.079Z,164160
2018-06-19T11:18:23.792Z,110656
2018-06-19T11:19:25.465Z,62272
2018-06-19T11:20:27.127Z,45504
2018-06-19T11:21:28.839Z,39136
2018-06-19T11:22:30.486Z,34272
2018-06-19T11:23:32.149Z,30752
2018-06-19T11:24:33.843Z,28416
2018-06-19T11:25:35.535Z,26144
2018-06-19T11:26:37.193Z,23744
2018-06-19T11:27:39.731Z,23424
2018-06-19T11:28:41.404Z,23104
2018-06-19T11:29:43.087Z,22176
2018-06-19T11:30:45.958Z,22272
2018-06-19T11:31:48.550Z,22560
2018-06-19T11:32:50.283Z,21120
2018-06-19T11:33:51.902Z,19488
2018-06-19T11:34:53.577Z,17312
2018-06-19T11:35:55.418Z,16036
2018-06-19T11:36:57.088Z,15612
2018-06-19T11:37:58.769Z,15268
2018-06-19T11:39:00.432Z,14620
2018-06-19T11:40:02.128Z,15212
2018-06-19T11:41:03.794Z,18688
2018-06-19T11:42:05.464Z,22496
2018-06-19T11:43:07.141Z,25472
2018-06-19T11:44:08.802Z,29344
2018-06-19T11:45:10.472Z,31904
2018-06-19T11:46:12.146Z,32032
2018-06-19T11:47:13.821Z,32768
2018-06-19T11:48:15.487Z,33088
2018-06-19T11:49:17.173Z,31648
2018-06-19T11:50:18.786Z,27968
2018-06-19T11:51:20.471Z,21472
2018-06-19T11:52:22.122Z,18592
2018-06-19T11:53:23.781Z,24672
2018-06-19T11:54:25.450Z,31360
2018-06-19T11:55:27.120Z,32416
2018-06-19T11:56:28.784Z,38208
2018-06-19T11:57:30.458Z,61984
2018-06-19T11:58:32.135Z,80960
2018-06-19T11:59:33.811Z,46432
2018-06-19T12:00:35.473Z,43488
2018-06-19T12:01:37.148Z,40384
2018-06-19T12:02:38.819Z,43296
2018-06-19T12:03:40.483Z,45024
2018-06-19T12:04:42.156Z,53856
2018-06-19T12:05:43.845Z,61376
2018-06-19T12:06:45.546Z,51168
2018-06-19T12:07:47.186Z,41600
2018-06-19T12:08:48.864Z,27872
2018-06-19T12:09:50.543Z,20320
2018-06-19T12:10:52.221Z,20480
2018-06-19T12:11:53.879Z,21984
2018-06-19T12:12:55.546Z,22720
2018-06-19T12:13:57.212Z,26592
2018-06-19T12:14:58.887Z,31456
2018-06-19T12:16:00.558Z,30976
2018-06-19T12:17:02.245Z,25728
2018-06-19T12:18:03.905Z,24192
2018-06-19T12:19:05.578Z,27104
2018-06-19T12:20:07.253Z,34048
2018-06-19T12:21:08.917Z,35168
2018-06-19T12:22:10.599Z,31744
2018-06-19T12:23:12.300Z,27552
2018-06-19T12:24:13.974Z,28736
2018-06-19T12:25:15.651Z,31392
2018-06-19T12:26:17.311Z,35584
2018-06-19T12:27:18.992Z,38432
2018-06-19T12:28:20.674Z,39200
2018-06-19T12:29:22.330Z,44576
2018-06-19T12:30:23.991Z,40768
2018-06-19T12:31:25.664Z,34112
2018-06-19T12:32:27.334Z,30688
2018-06-19T12:33:29.010Z,32288
2018-06-19T12:34:30.677Z,35936
2018-06-19T12:35:32.338Z,42848
2018-06-19T12:36:34.033Z,46240
2018-06-19T12:37:35.708Z,42912
2018-06-19T12:38:37.385Z,38368
2018-06-19T12:39:39.058Z,35456
2018-06-19T12:40:40.713Z,30560
2018-06-19T12:41:42.455Z,24224
2018-06-19T12:42:44.050Z,20320
2018-06-19T12:43:45.711Z,17504
2018-06-19T12:44:47.399Z,15152
2018-06-19T12:45:49.049Z,16200
2018-06-19T12:46:50.739Z,19712
2018-06-19T12:47:52.395Z,20480
2018-06-19T12:48:54.195Z,19136
2018-06-19T12:49:55.850Z,19104
2018-06-19T12:50:57.512Z,18560
2018-06-19T12:51:59.186Z,18432
2018-06-19T12:53:00.868Z,19456
2018-06-19T12:54:02.536Z,20896
2018-06-19T12:55:04.196Z,22688
2018-06-19T12:56:05.862Z,24480
2018-06-19T12:57:07.543Z,25504
2018-06-19T12:58:09.220Z,24096
2018-06-19T12:59:10.874Z,23904
2018-06-19T13:00:12.556Z,24096
2018-06-19T13:01:14.215Z,23968
2018-06-19T13:02:15.881Z,22528
2018-06-19T13:03:17.552Z,19872
2018-06-19T13:04:19.230Z,17036
2018-06-19T13:05:20.906Z,15316
2018-06-19T13:06:22.554Z,14708
2018-06-19T13:07:24.235Z,15292
2018-06-19T13:08:25.893Z,17984
2018-06-19T13:09:27.563Z,22432
2018-06-19T13:10:29.228Z,25536
2018-06-19T13:11:30.895Z,27584
2018-06-19T13:12:32.570Z,30880
2018-06-19T13:13:34.237Z,38592
2018-06-19T13:14:35.911Z,47424
2018-06-19T13:15:37.612Z,48192
2018-06-19T13:16:39.297Z,45088
2018-06-19T13:17:40.970Z,43104
2018-06-19T13:18:42.642Z,39424
2018-06-19T13:19:44.306Z,36928
2018-06-19T13:20:45.976Z,34272
2018-06-19T13:21:47.659Z,32320
2018-06-19T13:22:49.330Z,29824
2018-06-19T13:23:50.995Z,26496
2018-06-19T13:24:52.659Z,24416
2018-06-19T13:25:54.320Z,23584
2018-06-19T13:26:56.019Z,23584
2018-06-19T13:27:57.671Z,26464
2018-06-19T13:28:59.331Z,32960
2018-06-19T13:30:01.016Z,41824
2018-06-19T13:31:02.677Z,46720
2018-06-19T13:32:04.347Z,51264
2018-06-19T13:33:06.008Z,49248
2018-06-19T13:34:07.680Z,50368
2018-06-19T13:35:09.351Z,54912
2018-06-19T13:36:11.026Z,54688
2018-06-19T13:37:12.690Z,52224
2018-06-19T13:38:14.372Z,50368
2018-06-19T13:39:16.037Z,50592
2018-06-19T13:40:17.745Z,52640
2018-06-19T13:41:19.411Z,52320
2018-06-19T13:42:21.081Z,49920
2018-06-19T13:43:22.759Z,48864
2018-06-19T13:44:24.429Z,45632
2018-06-19T13:45:26.102Z,39648
2018-06-19T13:46:27.775Z,32960
2018-06-19T13:47:29.442Z,28096
2018-06-19T13:48:31.129Z,24224
2018-06-19T13:49:32.798Z,20864
2018-06-19T13:50:34.463Z,19520
2018-06-19T13:51:36.144Z,18720
2018-06-19T13:52:37.815Z,17664
2018-06-19T13:53:39.540Z,16636
2018-06-19T13:54:41.208Z,15808
2018-06-19T14:01:08.667Z,23296
2018-06-19T14:02:10.336Z,22240
2018-06-19T14:04:02.349Z,20128
2018-06-19T14:05:04.014Z,18624
2018-06-19T14:06:56.010Z,15816
2018-06-19T14:07:57.748Z,14044
2018-06-19T14:09:49.676Z,12080
2018-06-19T14:10:51.339Z,11496
2018-06-19T14:12:43.358Z,9580
2018-06-19T14:13:45.021Z,8976
2018-06-19T14:15:37.021Z,8312
2018-06-19T14:16:38.667Z,8120
2018-06-19T14:17:40.335Z,8828
2018-06-19T14:18:42.046Z,10016
2018-06-19T14:19:43.671Z,10564
2018-06-19T14:20:45.336Z,10816
2018-06-19T14:21:46.992Z,11544
2018-06-19T14:22:48.661Z,13236
2018-06-19T14:23:50.336Z,16120
2018-06-19T14:24:51.996Z,17952
2018-06-19T14:25:53.671Z,17920
2018-06-19T14:26:55.334Z,16932
2018-06-19T14:27:56.996Z,16088
2018-06-19T14:28:58.723Z,16236
2018-06-19T14:30:00.370Z,17104
2018-06-19T14:31:02.135Z,17632
2018-06-19T14:32:03.795Z,17220
2018-06-19T14:33:05.481Z,18208
2018-06-19T14:34:07.172Z,20672
2018-06-19T14:35:08.744Z,24000